createdAt,value
2024-03-15T00:06:53.290Z,99105.93
2024-03-15T00:16:29.662Z,99100.60
2024-03-15T00:26:02.336Z,99095.45
2024-03-15T00:35:35.714Z,99095.89
2024-03-15T00:45:09.303Z,99091.19
2024-03-15T00:54:41.334Z,99093.92
2024-03-15T01:04:14.939Z,99094.70
2024-03-15T01:13:49.250Z,99081.09
2024-03-15T01:23:24.183Z,99089.30
2024-03-15T01:32:56.401Z,99096.59
2024-03-15T01:42:31.836Z,99085.05
2024-03-15T01:52:05.475Z,99076.11
2024-03-15T02:01:39.593Z,99063.27
2024-03-15T02:11:11.526Z,99071.77
2024-03-15T02:20:45.274Z,99061.30
2024-03-15T02:30:17.500Z,99066.01
2024-03-15T02:39:51.117Z,99066.89
2024-03-15T02:49:26.460Z,99075.77
2024-03-15T02:58:58.158Z,99079.03
2024-03-15T03:08:31.632Z,99078.67
2024-03-15T03:18:05.589Z,99074.16
2024-03-15T03:27:40.547Z,99081.34
2024-03-15T03:37:13.379Z,99082.44
2024-03-15T03:46:47.407Z,99085.41
2024-03-15T03:56:20.533Z,99087.83
2024-03-15T04:05:55.695Z,99083.61
2024-03-15T04:15:30.638Z,99100.28
2024-03-15T04:25:03.992Z,99100.89
2024-03-15T04:34:36.266Z,99103.83
2024-03-15T04:44:10.837Z,99110.67
2024-03-15T04:53:44.510Z,99107.73
2024-03-15T05:03:18.326Z,99111.47
2024-03-15T05:12:54.024Z,99110.42
2024-03-15T05:22:26.836Z,99122.11
2024-03-15T05:32:01.273Z,99127.44
2024-03-15T05:41:34.615Z,99130.75
2024-03-15T05:51:05.445Z,99134.61
2024-03-15T06:00:33.210Z,99139.47
2024-03-15T06:10:10.356Z,99150.08
2024-03-15T06:19:42.695Z,99160.83
2024-03-15T06:29:10.197Z,99164.22
2024-03-15T06:38:44.296Z,99153.66
2024-03-15T06:48:17.457Z,99163.78
2024-03-15T06:57:52.072Z,99173.67
2024-03-15T07:07:26.197Z,99184.58
2024-03-15T07:17:00.675Z,99171.65
2024-03-15T07:18:03.210Z,99167.98
2024-03-15T07:27:37.860Z,99171.25
2024-03-15T07:37:14.670Z,99191.38
2024-03-15T07:46:45.303Z,99188.83
2024-03-15T07:56:21.351Z,99186.54
2024-03-15T07:57:25.385Z,99192.29
2024-03-15T07:58:27.683Z,99190.83
2024-03-15T07:59:31.780Z,99188.77
2024-03-15T08:00:35.594Z,99188.02
2024-03-15T08:01:39.584Z,99187.84
2024-03-15T08:02:41.854Z,99190.93
2024-03-15T08:03:44.308Z,99190.36
2024-03-15T08:04:46.851Z,99181.33
2024-03-15T08:05:49.197Z,99189.05
2024-03-15T08:06:53.318Z,99191.66
2024-03-15T08:16:25.383Z,99197.37
2024-03-15T08:17:27.456Z,99198.09
2024-03-15T08:18:31.607Z,99200.03
2024-03-15T08:28:04.796Z,99201.70
2024-03-15T08:29:10.309Z,99200.19
2024-03-15T08:30:13.738Z,99199.95
2024-03-15T08:31:15.890Z,99200.19
2024-03-15T08:32:19.150Z,99204.41
2024-03-15T08:33:24.869Z,99207.14
2024-03-15T08:34:27.282Z,99206.08
2024-03-15T08:35:29.396Z,99208.25
2024-03-15T08:36:32.808Z,99206.81
2024-03-15T08:37:37.050Z,99218.09
2024-03-15T08:38:40.907Z,99211.64
2024-03-15T08:39:42.837Z,99211.52
2024-03-15T08:49:14.896Z,99224.98
2024-03-15T08:50:18.729Z,99221.91
2024-03-15T08:51:22.737Z,99227.16
2024-03-15T08:52:26.037Z,99222.80
2024-03-15T08:54:39.128Z,99230.08
2024-03-15T08:55:41.563Z,99228.52
2024-03-15T08:56:44.942Z,99223.13
2024-03-15T08:57:47.383Z,99230.17
2024-03-15T08:58:49.757Z,99235.95
2024-03-15T08:59:52.194Z,99230.42
2024-03-15T09:00:54.684Z,99229.61
2024-03-15T09:01:58.731Z,99226.28
2024-03-15T09:03:07.141Z,99230.88
2024-03-15T09:04:11.780Z,99237.41
2024-03-15T09:13:42.323Z,99236.86
2024-03-15T09:14:43.523Z,99235.83
2024-03-15T09:15:45.981Z,99234.39
2024-03-15T09:16:48.296Z,99234.06
2024-03-15T09:17:52.303Z,99232.31
2024-03-15T09:18:54.683Z,99235.22
2024-03-15T09:19:58.773Z,99240.70
2024-03-15T09:21:07.874Z,99234.94
2024-03-15T09:22:11.460Z,99233.19
2024-03-15T09:23:13.688Z,99230.76
2024-03-15T09:24:16.929Z,99229.94
2024-03-15T09:25:21.746Z,99234.80
2024-03-15T09:34:51.852Z,99232.20
2024-03-15T09:35:55.424Z,99239.63
2024-03-15T09:36:59.321Z,99239.20
2024-03-15T09:38:02.556Z,99233.83
2024-03-15T09:39:07.501Z,99238.69
2024-03-15T09:40:09.792Z,99235.63
2024-03-15T09:41:12.210Z,99249.53
2024-03-15T09:42:16.259Z,99245.21
2024-03-15T09:43:18.531Z,99242.61
2024-03-15T09:44:20.961Z,99236.42
2024-03-15T09:45:24.431Z,99234.84
2024-03-15T09:46:26.673Z,99238.25
2024-03-15T09:47:30.212Z,99243.70
2024-03-15T09:48:34.130Z,99242.22
2024-03-15T09:49:34.849Z,99241.74
2024-03-15T09:50:37.430Z,99239.48
2024-03-15T09:51:39.851Z,99238.16
2024-03-15T09:52:42.329Z,99232.98
2024-03-15T09:53:44.704Z,99237.73
2024-03-15T09:54:47.097Z,99239.92
2024-03-15T09:55:49.642Z,99244.65
2024-03-15T09:56:52.116Z,99235.48
2024-03-15T09:57:54.505Z,99241.05
2024-03-15T09:58:56.912Z,99235.48
2024-03-15T09:59:59.384Z,99235.78
2024-03-15T10:01:01.847Z,99232.23
2024-03-15T10:02:05.888Z,99230.56
2024-03-15T10:03:09.750Z,99240.33
2024-03-15T10:04:12.401Z,99241.27
2024-03-15T10:05:14.676Z,99240.69
2024-03-15T10:06:17.159Z,99242.17
2024-03-15T10:07:19.522Z,99241.63
2024-03-15T10:08:22.014Z,99249.27
2024-03-15T10:09:24.382Z,99236.89
2024-03-15T10:10:28.500Z,99241.93
2024-03-15T10:11:30.738Z,99245.06
2024-03-15T10:12:34.844Z,99240.47
2024-03-15T10:13:37.222Z,99247.09
2024-03-15T10:14:39.508Z,99253.33
2024-03-15T10:15:41.959Z,99248.13
2024-03-15T10:16:44.391Z,99252.64
2024-03-15T10:17:47.945Z,99248.38
2024-03-15T10:18:52.958Z,99244.91
2024-03-15T10:19:55.212Z,99239.45
2024-03-15T10:20:59.077Z,99244.23
2024-03-15T10:22:01.535Z,99244.02
2024-03-15T10:23:03.806Z,99250.80
2024-03-15T10:24:11.073Z,99245.88
2024-03-15T10:25:11.650Z,99250.38
2024-03-15T10:26:15.604Z,99246.16
2024-03-15T10:27:17.974Z,99243.98
2024-03-15T10:28:22.027Z,99245.02
2024-03-15T10:29:24.289Z,99244.08
2024-03-15T10:30:28.302Z,99246.88
2024-03-15T10:31:30.632Z,99244.55
2024-03-15T10:32:33.080Z,99248.77
2024-03-15T10:33:35.501Z,99249.46
2024-03-15T10:34:39.566Z,99246.87
2024-03-15T10:35:41.837Z,99248.22
2024-03-15T10:36:45.934Z,99243.14
2024-03-15T10:37:48.260Z,99244.87
2024-03-15T10:38:50.967Z,99245.98
2024-03-15T10:39:53.430Z,99244.12
2024-03-15T10:40:55.844Z,99251.09
2024-03-15T10:41:58.337Z,99248.73
2024-03-15T10:43:00.866Z,99249.13
2024-03-15T10:44:08.911Z,99246.75
2024-03-15T10:45:11.099Z,99246.48
2024-03-15T10:46:13.476Z,99249.02
2024-03-15T10:47:15.818Z,99250.66
2024-03-15T10:56:48.741Z,99248.66
2024-03-15T10:57:52.960Z,99247.55
2024-03-15T10:58:59.004Z,99244.50
2024-03-15T11:00:02.791Z,99257.53
2024-03-15T11:01:05.207Z,99245.23
2024-03-15T11:02:09.207Z,99248.42
2024-03-15T11:03:11.507Z,99250.58
2024-03-15T11:04:15.184Z,99248.11
2024-03-15T11:05:18.208Z,99248.66
2024-03-15T11:06:22.415Z,99256.28
2024-03-15T11:07:26.299Z,99250.97
2024-03-15T11:08:29.680Z,99246.86
2024-03-15T11:09:32.091Z,99255.81
2024-03-15T11:10:37.213Z,99255.19
2024-03-15T11:11:43.073Z,99256.53
2024-03-15T11:12:45.558Z,99253.05
2024-03-15T11:13:48.072Z,99254.21
2024-03-15T11:14:50.533Z,99255.88
2024-03-15T11:15:53.141Z,99255.86
2024-03-15T11:16:55.610Z,99262.63
2024-03-15T11:17:58.085Z,99264.92
2024-03-15T11:19:02.171Z,99267.52
2024-03-15T11:20:04.506Z,99258.89
2024-03-15T11:21:06.899Z,99263.33
2024-03-15T11:22:09.338Z,99263.05
2024-03-15T11:23:12.173Z,99264.41
2024-03-15T11:24:16.401Z,99254.27
2024-03-15T11:25:19.034Z,99257.20
2024-03-15T11:26:21.301Z,99261.73
2024-03-15T11:27:23.791Z,99263.87
2024-03-15T11:28:27.686Z,99257.81
2024-03-15T11:29:30.027Z,99260.65
2024-03-15T11:30:32.604Z,99254.58
2024-03-15T11:31:36.513Z,99262.98
2024-03-15T11:32:38.837Z,99260.14
2024-03-15T11:33:42.970Z,99261.97
2024-03-15T11:34:45.581Z,99257.98
2024-03-15T11:35:47.565Z,99254.52
2024-03-15T11:36:51.550Z,99258.91
2024-03-15T11:37:53.925Z,99257.09
2024-03-15T11:38:56.484Z,99258.72
2024-03-15T11:40:00.762Z,99262.06
2024-03-15T11:41:03.972Z,99265.75
2024-03-15T11:42:06.254Z,99266.78
2024-03-15T11:43:13.435Z,99266.35
2024-03-15T11:44:12.753Z,99265.88
2024-03-15T11:45:15.162Z,99265.56
2024-03-15T11:46:17.698Z,99268.89
2024-03-15T11:47:20.063Z,99264.27
2024-03-15T11:48:22.650Z,99271.06
2024-03-15T11:49:24.857Z,99261.19
2024-03-15T11:50:28.364Z,99270.88
2024-03-15T11:51:30.706Z,99271.01
2024-03-15T11:52:33.157Z,99268.43
2024-03-15T11:53:38.314Z,99269.44
2024-03-15T11:54:39.574Z,99270.82
2024-03-15T11:55:42.976Z,99272.96
2024-03-15T11:56:46.276Z,99265.14
2024-03-15T11:57:49.686Z,99255.89
2024-03-15T11:58:52.036Z,99259.20
2024-03-15T11:59:56.059Z,99255.88
2024-03-15T12:01:01.159Z,99252.02
2024-03-15T12:02:04.959Z,99259.59
2024-03-15T12:03:07.096Z,99251.65
2024-03-15T12:04:09.659Z,99256.00
2024-03-15T12:05:12.028Z,99252.23
2024-03-15T12:06:14.427Z,99252.91
2024-03-15T12:07:19.445Z,99252.83
2024-03-15T12:08:21.690Z,99245.25
2024-03-15T12:09:24.133Z,99248.02
2024-03-15T12:10:28.302Z,99246.02
2024-03-15T12:11:30.640Z,99244.36
2024-03-15T12:12:32.991Z,99253.89
2024-03-15T12:13:35.445Z,99249.25
2024-03-15T12:14:39.614Z,99250.86
2024-03-15T12:15:43.528Z,99248.69
2024-03-15T12:16:45.812Z,99247.57
2024-03-15T12:17:49.900Z,99247.44
2024-03-15T12:18:53.153Z,99237.23
2024-03-15T12:19:56.538Z,99243.10
2024-03-15T12:20:58.855Z,99242.80
2024-03-15T12:22:01.353Z,99244.55
2024-03-15T12:23:03.759Z,99242.08
2024-03-15T12:24:06.452Z,99254.66
2024-03-15T12:25:08.854Z,99246.03
2024-03-15T12:26:13.861Z,99228.72
2024-03-15T12:27:16.035Z,99236.34
2024-03-15T12:28:18.490Z,99241.34
2024-03-15T12:29:20.928Z,99243.03
2024-03-15T12:30:24.387Z,99234.13
2024-03-15T12:31:27.742Z,99231.68
2024-03-15T12:32:31.122Z,99232.91
2024-03-15T12:33:33.505Z,99242.97
2024-03-15T12:34:35.896Z,99232.34
2024-03-15T12:35:38.401Z,99227.67
2024-03-15T12:36:43.631Z,99229.56
2024-03-15T12:37:45.861Z,99230.70
2024-03-15T12:38:48.323Z,99234.09
2024-03-15T12:39:50.907Z,99224.54
2024-03-15T12:40:53.949Z,99228.59
2024-03-15T12:41:55.694Z,99235.05
2024-03-15T12:43:00.035Z,99245.45
2024-03-15T12:44:02.476Z,99231.19
2024-03-15T12:45:06.547Z,99238.23
2024-03-15T12:46:11.503Z,99232.28
2024-03-15T12:47:15.369Z,99242.55
2024-03-15T12:48:17.702Z,99235.45
2024-03-15T12:49:20.155Z,99230.34
2024-03-15T12:50:22.526Z,99237.46
2024-03-15T12:51:27.675Z,99231.58
2024-03-15T12:52:29.920Z,99236.02
2024-03-15T12:53:34.203Z,99230.44
2024-03-15T12:54:36.527Z,99231.11
2024-03-15T12:55:39.057Z,99224.11
2024-03-15T12:56:42.998Z,99230.20
2024-03-15T12:57:47.968Z,99227.13
2024-03-15T12:58:50.215Z,99230.42
2024-03-15T12:59:54.190Z,99234.58
2024-03-15T13:00:56.539Z,99228.54
2024-03-15T13:01:59.011Z,99228.81
2024-03-15T13:03:01.437Z,99228.44
2024-03-15T13:04:03.918Z,99229.66
2024-03-15T13:05:08.147Z,99233.39
2024-03-15T13:06:12.091Z,99225.78
2024-03-15T13:07:14.351Z,99220.89
2024-03-15T13:08:16.790Z,99229.83
2024-03-15T13:09:19.255Z,99223.44
2024-03-15T13:10:21.718Z,99231.90
2024-03-15T13:11:24.182Z,99228.73
2024-03-15T13:12:32.223Z,99226.18
2024-03-15T13:13:34.394Z,99228.25
2024-03-15T13:14:36.783Z,99224.77
2024-03-15T13:15:43.046Z,99232.02
2024-03-15T13:16:45.216Z,99227.98
2024-03-15T13:17:47.820Z,99227.97
2024-03-15T13:18:51.746Z,99231.05
2024-03-15T13:19:54.058Z,99232.07
2024-03-15T13:20:56.894Z,99232.55
2024-03-15T13:22:02.859Z,99224.98
2024-03-15T13:23:04.983Z,99232.06
2024-03-15T13:24:07.438Z,99233.48
2024-03-15T13:25:14.774Z,99234.83
2024-03-15T13:26:12.369Z,99234.13
2024-03-15T13:27:14.810Z,99233.92
2024-03-15T13:28:17.321Z,99228.28
2024-03-15T13:29:19.789Z,99228.98
2024-03-15T13:30:22.330Z,99231.13
2024-03-15T13:31:24.781Z,99227.33
2024-03-15T13:32:27.284Z,99228.84
2024-03-15T13:33:29.678Z,99227.47
2024-03-15T13:34:32.075Z,99228.06
2024-03-15T13:35:34.557Z,99227.23
2024-03-15T13:36:37.021Z,99227.75
2024-03-15T13:37:39.382Z,99228.89
2024-03-15T13:38:41.918Z,99228.77
2024-03-15T13:39:46.933Z,99228.53
2024-03-15T13:49:18.252Z,99228.88
2024-03-15T13:50:20.842Z,99227.79
2024-03-15T13:51:24.720Z,99228.38
2024-03-15T13:52:26.989Z,99219.63
2024-03-15T13:53:29.400Z,99221.34
2024-03-15T13:54:31.886Z,99219.16
2024-03-15T13:55:35.949Z,99223.18
2024-03-15T13:56:38.230Z,99222.53
2024-03-15T13:57:40.745Z,99221.99
2024-03-15T13:58:43.095Z,99223.23
2024-03-15T13:59:47.217Z,99222.35
2024-03-15T14:00:53.361Z,99217.19
2024-03-15T14:01:55.494Z,99214.80
2024-03-15T14:02:58.891Z,99220.96
2024-03-15T14:04:01.279Z,99219.45
2024-03-15T14:05:04.612Z,99217.20
2024-03-15T14:06:08.624Z,99218.98
2024-03-15T14:07:11.963Z,99217.28
2024-03-15T14:08:14.354Z,99216.81
2024-03-15T14:09:18.250Z,99217.52
2024-03-15T14:10:22.289Z,99212.95
2024-03-15T14:11:25.481Z,99212.17
2024-03-15T14:12:27.747Z,99212.69
2024-03-15T14:13:32.836Z,99205.83
2024-03-15T14:14:36.299Z,99209.54
2024-03-15T14:15:40.570Z,99211.93
2024-03-15T14:16:42.592Z,99197.48
2024-03-15T14:17:44.920Z,99206.00
2024-03-15T14:18:47.304Z,99204.40
2024-03-15T14:19:49.690Z,99201.53
2024-03-15T14:20:52.095Z,99194.05
2024-03-15T14:21:54.508Z,99192.18
2024-03-15T14:22:57.002Z,99190.58
2024-03-15T14:24:01.926Z,99193.11
2024-03-15T14:25:05.336Z,99198.16
2024-03-15T14:26:08.969Z,99193.50
2024-03-15T14:27:13.870Z,99192.98
2024-03-15T14:28:16.159Z,99194.30
2024-03-15T14:29:18.539Z,99192.47
2024-03-15T14:30:22.577Z,99188.68
2024-03-15T14:31:25.994Z,99185.48
2024-03-15T14:32:28.302Z,99180.57
2024-03-15T14:33:30.715Z,99181.81
2024-03-15T14:34:33.338Z,99179.84
2024-03-15T14:35:35.812Z,99183.38
2024-03-15T14:36:38.280Z,99183.02
2024-03-15T14:37:44.478Z,99180.16
2024-03-15T14:38:46.573Z,99189.03
2024-03-15T14:39:49.079Z,99178.77
2024-03-15T14:40:53.093Z,99193.11
2024-03-15T14:41:55.506Z,99186.35
2024-03-15T14:42:57.962Z,99188.91
2024-03-15T14:44:00.402Z,99188.05
2024-03-15T14:45:04.455Z,99195.80
2024-03-15T14:46:06.853Z,99192.28
2024-03-15T14:47:09.205Z,99198.02
2024-03-15T14:48:14.154Z,99186.60
2024-03-15T14:49:14.093Z,99182.28
2024-03-15T14:50:18.162Z,99187.67
2024-03-15T14:51:22.255Z,99185.84
2024-03-15T14:52:24.535Z,99182.95
2024-03-15T14:53:26.935Z,99178.02
2024-03-15T14:54:30.374Z,99178.47
2024-03-15T14:55:32.711Z,99190.26
2024-03-15T14:56:35.197Z,99183.75
2024-03-15T14:57:37.649Z,99184.38
2024-03-15T14:58:40.097Z,99186.45
2024-03-15T14:59:44.119Z,99184.62
2024-03-15T15:00:46.605Z,99182.45
2024-03-15T15:01:49.229Z,99180.63
2024-03-15T15:02:51.508Z,99183.55
2024-03-15T15:03:55.625Z,99193.89
2024-03-15T15:04:57.966Z,99182.82
2024-03-15T15:06:00.376Z,99179.92
2024-03-15T15:07:02.781Z,99181.61
2024-03-15T15:08:06.881Z,99187.61
2024-03-15T15:09:11.857Z,99177.84
2024-03-15T15:10:15.776Z,99188.00
2024-03-15T15:11:18.097Z,99180.53
2024-03-15T15:12:20.609Z,99185.97
2024-03-15T15:13:23.135Z,99184.57
2024-03-15T15:14:27.185Z,99184.11
2024-03-15T15:15:29.809Z,99176.29
2024-03-15T15:16:33.039Z,99170.91
2024-03-15T15:17:35.325Z,99175.56
2024-03-15T15:18:39.328Z,99175.16
2024-03-15T15:19:41.564Z,99169.92
2024-03-15T15:20:45.627Z,99167.14
2024-03-15T15:21:48.058Z,99164.66
2024-03-15T15:22:50.820Z,99157.92
2024-03-15T15:23:54.602Z,99154.52
2024-03-15T15:24:57.029Z,99141.00
2024-03-15T15:26:01.054Z,99147.92
2024-03-15T15:27:03.425Z,99145.05
2024-03-15T15:28:05.997Z,99149.05
2024-03-15T15:29:08.305Z,99143.48
2024-03-15T15:30:12.375Z,99145.43
2024-03-15T15:31:16.454Z,99149.56
2024-03-15T15:32:18.597Z,99144.06
2024-03-15T15:33:21.168Z,99141.50
2024-03-15T15:34:25.092Z,99147.94
2024-03-15T15:35:25.928Z,99147.97
2024-03-15T15:36:28.385Z,99144.57
2024-03-15T15:37:30.904Z,99139.60
2024-03-15T15:38:34.930Z,99143.05
2024-03-15T15:39:37.162Z,99139.63
2024-03-15T15:40:39.687Z,99142.31
2024-03-15T15:41:43.663Z,99139.38
2024-03-15T15:42:47.055Z,99135.50
2024-03-15T15:43:49.377Z,99140.78
2024-03-15T15:44:51.824Z,99143.34
2024-03-15T15:45:56.001Z,99143.09
2024-03-15T15:46:59.929Z,99147.56
2024-03-15T15:48:03.826Z,99137.84
2024-03-15T15:49:06.167Z,99150.04
2024-03-15T15:50:08.631Z,99144.48
2024-03-15T15:51:11.064Z,99137.22
2024-03-15T15:52:13.528Z,99137.03
2024-03-15T15:53:17.012Z,99134.60
2024-03-15T15:54:19.428Z,99129.84
2024-03-15T15:55:21.938Z,99125.54
2024-03-15T15:56:25.944Z,99128.81
2024-03-15T15:57:28.306Z,99130.73
2024-03-15T15:58:32.386Z,99122.81
2024-03-15T15:59:34.682Z,99126.66
2024-03-15T16:00:37.229Z,99138.80
2024-03-15T16:01:39.730Z,99135.46
2024-03-15T16:02:43.784Z,99136.23
2024-03-15T16:03:46.084Z,99134.39
2024-03-15T16:04:48.641Z,99133.88
2024-03-15T16:05:50.953Z,99141.73
2024-03-15T16:06:53.461Z,99140.45
2024-03-15T16:07:55.920Z,99150.17
2024-03-15T16:09:00.173Z,99146.80
2024-03-15T16:10:05.157Z,99149.75
2024-03-15T16:11:07.368Z,99151.70
2024-03-15T16:12:11.394Z,99149.42
2024-03-15T16:13:13.687Z,99152.08
2024-03-15T16:14:16.090Z,99151.86
2024-03-15T16:15:20.185Z,99160.06
2024-03-15T16:16:24.109Z,99158.93
2024-03-15T16:17:26.432Z,99157.78
2024-03-15T16:18:28.838Z,99154.50
2024-03-15T16:19:31.257Z,99165.39
2024-03-15T16:20:33.635Z,99161.65
2024-03-15T16:21:37.758Z,99165.69
2024-03-15T16:22:40.912Z,99161.77
2024-03-15T16:23:43.240Z,99170.10
2024-03-15T16:24:45.953Z,99162.97
2024-03-15T16:25:48.301Z,99169.09
2024-03-15T16:26:50.688Z,99171.45
2024-03-15T16:27:53.171Z,99165.48
2024-03-15T16:28:55.623Z,99168.39
2024-03-15T16:29:59.092Z,99163.50
2024-03-15T16:31:01.471Z,99168.66
2024-03-15T16:32:04.201Z,99168.34
2024-03-15T16:33:07.483Z,99167.78
2024-03-15T16:34:09.110Z,99168.57
2024-03-15T16:35:11.442Z,99168.94
2024-03-15T16:36:13.867Z,99172.44
2024-03-15T16:37:20.154Z,99174.83
2024-03-15T16:38:22.348Z,99172.71
2024-03-15T16:39:24.813Z,99170.36
2024-03-15T16:40:27.240Z,99168.44
2024-03-15T16:41:29.566Z,99171.95
2024-03-15T16:42:32.323Z,99173.10
2024-03-15T16:43:35.108Z,99179.98
2024-03-15T16:44:37.296Z,99178.23
2024-03-15T16:45:39.827Z,99178.41
2024-03-15T16:46:42.240Z,99168.02
2024-03-15T16:47:46.174Z,99180.63
2024-03-15T16:48:48.468Z,99173.78
2024-03-15T16:49:50.986Z,99173.52
2024-03-15T16:50:53.391Z,99180.72
2024-03-15T16:51:55.847Z,99178.42
2024-03-15T16:53:00.004Z,99179.80
2024-03-15T16:54:02.119Z,99184.80
2024-03-15T16:55:04.708Z,99184.85
2024-03-15T16:56:08.661Z,99180.49
2024-03-15T16:57:10.835Z,99179.81
2024-03-15T16:58:13.289Z,99182.82
2024-03-15T16:59:17.159Z,99180.97
2024-03-15T17:00:20.074Z,99183.30
2024-03-15T17:01:23.712Z,99187.52
2024-03-15T17:02:26.062Z,99185.80
2024-03-15T17:03:30.354Z,99188.25
2024-03-15T17:04:33.605Z,99191.17
2024-03-15T17:05:37.496Z,99191.86
2024-03-15T17:06:41.600Z,99190.50
2024-03-15T17:07:43.565Z,99198.51
2024-03-15T17:17:15.280Z,99202.08
2024-03-15T17:26:50.334Z,99215.09
2024-03-15T17:36:23.240Z,99189.53
2024-03-15T17:37:27.176Z,99191.48
2024-03-15T17:46:59.485Z,99201.41
2024-03-15T17:56:27.221Z,99227.68
2024-03-15T18:05:58.465Z,99231.67
2024-03-15T18:15:32.843Z,99235.27
2024-03-15T18:25:08.330Z,99244.22
2024-03-15T18:34:41.248Z,99249.91
2024-03-15T18:44:15.459Z,99242.48
2024-03-15T18:53:51.078Z,99260.92
2024-03-15T19:03:22.837Z,99257.84
2024-03-15T19:12:56.677Z,99253.73
2024-03-15T19:22:32.029Z,99267.77
2024-03-15T19:32:04.215Z,99255.80
2024-03-15T19:41:37.432Z,99264.98
2024-03-15T19:51:11.463Z,99291.74
2024-03-15T20:00:46.830Z,99280.66
2024-03-15T20:10:19.718Z,99259.02
2024-03-15T20:19:50.755Z,99278.14
2024-03-15T20:29:26.044Z,99290.56
2024-03-15T20:38:59.247Z,99290.75
2024-03-15T20:48:31.519Z,99293.84
2024-03-15T20:58:04.426Z,99295.84
2024-03-15T21:07:38.623Z,99302.16
2024-03-15T21:17:12.751Z,99288.19
2024-03-15T21:26:47.064Z,99299.48
2024-03-15T21:36:23.072Z,99304.55
2024-03-15T21:45:54.784Z,99297.97
2024-03-15T21:55:25.783Z,99309.22
2024-03-15T22:04:59.459Z,99311.16
2024-03-15T22:14:35.056Z,99317.58
2024-03-15T22:24:07.250Z,99313.53
2024-03-15T22:33:43.130Z,99304.05
2024-03-15T22:43:16.376Z,99306.23
2024-03-15T22:52:50.180Z,99302.71
2024-03-15T23:02:24.326Z,99297.70
2024-03-15T23:11:56.596Z,99301.91
2024-03-15T23:21:30.757Z,99289.55
2024-03-15T23:31:06.593Z,99303.20
2024-03-15T23:40:38.234Z,99324.23
2024-03-15T23:50:11.572Z,99319.57
2024-03-15T23:59:44.710Z,99315.72
